Track Никольский Артем

Time Latitude Longitude Accuracy (66% radius in meters) Altitude (meters) Speed (km/hour) Bearing (degrees) Battery (%) GPS flag
10:14:15 60.371126 29.556287 16 65 0 318.51412963867 63 1 delete
10:14:05 60.371126 29.556287 16 69 0 318.51412963867 63 1 delete
10:13:52 60.371142 29.556258 16 65 0 318.51412963867 63 1 delete
10:13:39 60.371149 29.556248 16 76 0 333.71481323242 63 1 delete
10:13:37 60.371149 29.556248 12 79 0.55867701768875 333.71481323242 63 1 delete
10:13:33 60.371097 29.556273 12 89 0 350.91735839844 63 1 delete
10:13:30 60.371039 29.556299 12 84 0 329.87243652344 63 1 delete
10:13:25 60.371025 29.556302 12 88 0 329.87243652344 63 1 delete
10:13:13 60.371023 29.556304 12 89 0.11082499474287 329.87243652344 63 1 delete
10:13:09 60.370995 29.556310 12 86 0.38763931393623 21.14435005188 63 1 delete
10:13:01 60.370951 29.556282 6 77 0 29.506879806519 63 1 delete
10:12:57 60.370944 29.556280 12 82 0 29.506879806519 63 1 delete
10:12:49 60.370964 29.556333 12 78 0 29.506879806519 63 1 delete
10:12:37 60.370964 29.556337 6 74 0 29.506879806519 63 1 delete
10:12:32 60.370976 29.556345 16 73 0.25275805592537 29.506879806519 63 1 delete
10:12:30 60.371025 29.556386 8 70 0 25.616748809814 63 1 delete
10:12:24 60.371075 29.556414 8 63 0 25.616748809814 63 1 delete
10:12:11 60.371082 29.556413 12 60 0 25.616748809814 63 1 delete
10:11:59 60.371079 29.556410 6 66 0 26.16527557373 63 1 delete
10:11:47 60.371080 29.556410 16 70 0 26.16527557373 63 1 delete
10:11:45 60.371080 29.556410 16 74 0 26.16527557373 63 1 delete
10:11:34 60.371048 29.556342 16 77 0 32.242557525635 63 1 delete
10:11:33 60.371048 29.556342 16 76 0.10353881120682 32.242557525635 63 1 delete
10:11:22 60.371012 29.556319 12 64 0 11.141180038452 63 1 delete
10:11:09 60.371011 29.556297 12 52 0 11.141180038452 63 1 delete
10:10:58 60.371019 29.556270 16 56 1.3891212940216 11.141180038452 63 1 delete
10:10:46 60.371036 29.556307 12 65 0 128.36116027832 63 1 delete
10:10:33 60.371036 29.556307 12 65 0 128.36116027832 63 1 delete
10:10:23 60.371036 29.556307 8 65 0 128.36116027832 63 1 delete
10:10:10 60.370966 29.556365 12 71 0 128.36116027832 63 1 delete
10:09:58 60.370966 29.556365 8 71 0 128.36116027832 63 1 delete
10:09:46 60.370987 29.556327 6 72 1.0659960508347 139.53326416016 63 1 delete
10:09:33 60.370998 29.556331 8 83 0 132.43885803223 63 1 delete
10:09:20 60.370998 29.556331 12 83 0 132.43885803223 63 1 delete
10:09:07 60.370998 29.556331 8 83 0 132.43885803223 63 1 delete
10:08:55 60.370998 29.556331 6 83 0 132.43885803223 63 1 delete
10:08:50 60.370998 29.556331 6 83 0 132.43885803223 63 1 delete
10:08:41 60.370980 29.556443 6 69 0 132.43885803223 63 1 delete
10:08:28 60.370980 29.556443 6 69 0 132.43885803223 63 1 delete
10:08:16 60.371023 29.556430 12 76 0 46.350471496582 63 1 delete
10:08:09 60.371013 29.556427 6 76 1.0380593538284 11.918956756592 63 1 delete
10:08:01 60.370968 29.556442 6 72 0 321.42071533203 63 1 delete
10:07:49 60.370968 29.556442 6 72 0 321.42071533203 63 1 delete
10:07:42 60.370968 29.556442 4 72 0 321.42071533203 63 1 delete
10:07:27 60.370921 29.556552 8 74 0 321.42071533203 63 1 delete
10:07:17 60.370921 29.556552 8 74 0 321.42071533203 63 1 delete
10:07:04 60.370921 29.556552 6 74 0 321.42071533203 63 1 delete
10:07:01 60.370921 29.556552 6 74 0 321.42071533203 63 1 delete
10:06:52 60.370889 29.556652 6 73 0 321.42071533203 71 1 delete
10:06:45 60.370854 29.556699 6 73 1.230650305748 359.84451293945 71 1 delete